sensor_id;sensor_type;location;lat;lon;timestamp;temperature;humidity
46117;DHT22;32591;48.102;11.772;2023-05-10T00:00:24;14.30;99.90
46117;DHT22;32591;48.102;11.772;2023-05-10T00:02:53;14.30;99.90
46117;DHT22;32591;48.102;11.772;2023-05-10T00:05:20;14.30;99.90
46117;DHT22;32591;48.102;11.772;2023-05-10T00:07:47;14.30;99.90
46117;DHT22;32591;48.102;11.772;2023-05-10T00:10:13;14.30;99.90
46117;DHT22;32591;48.102;11.772;2023-05-10T00:12:40;14.20;99.90
46117;DHT22;32591;48.102;11.772;2023-05-10T00:15:08;14.20;99.90
46117;DHT22;32591;48.102;11.772;2023-05-10T00:17:36;14.10;99.90
46117;DHT22;32591;48.102;11.772;2023-05-10T00:20:05;13.90;99.90
46117;DHT22;32591;48.102;11.772;2023-05-10T00:22:33;13.90;99.90
46117;DHT22;32591;48.102;11.772;2023-05-10T00:25:00;13.90;99.90
46117;DHT22;32591;48.102;11.772;2023-05-10T00:27:27;13.80;99.90
46117;DHT22;32591;48.102;11.772;2023-05-10T00:29:54;13.80;99.90
46117;DHT22;32591;48.102;11.772;2023-05-10T00:32:21;13.70;99.90
46117;DHT22;32591;48.102;11.772;2023-05-10T00:34:48;13.60;99.90
46117;DHT22;32591;48.102;11.772;2023-05-10T00:37:16;13.70;99.90
46117;DHT22;32591;48.102;11.772;2023-05-10T00:39:43;13.60;99.90
46117;DHT22;32591;48.102;11.772;2023-05-10T00:42:10;13.70;99.90
46117;DHT22;32591;48.102;11.772;2023-05-10T00:44:37;13.60;99.90
46117;DHT22;32591;48.102;11.772;2023-05-10T00:47:04;13.50;99.90
46117;DHT22;32591;48.102;11.772;2023-05-10T00:49:31;13.50;99.90
46117;DHT22;32591;48.102;11.772;2023-05-10T00:51:58;13.60;99.90
46117;DHT22;32591;48.102;11.772;2023-05-10T00:54:26;13.60;99.90
46117;DHT22;32591;48.102;11.772;2023-05-10T00:56:54;13.60;99.90
46117;DHT22;32591;48.102;11.772;2023-05-10T00:59:22;13.70;99.90
46117;DHT22;32591;48.102;11.772;2023-05-10T01:01:49;13.70;99.90
46117;DHT22;32591;48.102;11.772;2023-05-10T01:04:17;13.70;99.90
46117;DHT22;32591;48.102;11.772;2023-05-10T01:06:45;13.70;99.90
46117;DHT22;32591;48.102;11.772;2023-05-10T01:09:12;13.70;99.90
46117;DHT22;32591;48.102;11.772;2023-05-10T01:11:40;13.70;99.90
46117;DHT22;32591;48.102;11.772;2023-05-10T01:14:08;13.70;99.90
46117;DHT22;32591;48.102;11.772;2023-05-10T01:16:37;13.80;99.90
46117;DHT22;32591;48.102;11.772;2023-05-10T01:19:08;13.80;99.90
46117;DHT22;32591;48.102;11.772;2023-05-10T01:21:43;13.90;99.90
46117;DHT22;32591;48.102;11.772;2023-05-10T01:24:44;13.80;99.90
46117;DHT22;32591;48.102;11.772;2023-05-10T01:27:47;13.80;99.90
46117;DHT22;32591;48.102;11.772;2023-05-10T01:33:40;13.50;99.90
46117;DHT22;32591;48.102;11.772;2023-05-10T01:36:16;13.40;99.90
46117;DHT22;32591;48.102;11.772;2023-05-10T01:38:55;13.40;99.90
46117;DHT22;32591;48.102;11.772;2023-05-10T01:41:28;13.50;99.90
46117;DHT22;32591;48.102;11.772;2023-05-10T01:44:04;13.60;99.90
46117;DHT22;32591;48.102;11.772;2023-05-10T01:46:35;13.50;99.90
46117;DHT22;32591;48.102;11.772;2023-05-10T01:49:08;13.50;99.90
46117;DHT22;32591;48.102;11.772;2023-05-10T01:51:41;13.40;99.90
46117;DHT22;32591;48.102;11.772;2023-05-10T01:54:13;13.50;99.90
46117;DHT22;32591;48.102;11.772;2023-05-10T01:56:42;13.50;99.90
46117;DHT22;32591;48.102;11.772;2023-05-10T01:59:13;13.60;99.90
46117;DHT22;32591;48.102;11.772;2023-05-10T02:01:43;13.60;99.90
46117;DHT22;32591;48.102;11.772;2023-05-10T02:04:15;13.60;99.90
46117;DHT22;32591;48.102;11.772;2023-05-10T02:06:43;13.70;99.90
46117;DHT22;32591;48.102;11.772;2023-05-10T02:09:13;13.60;99.90
46117;DHT22;32591;48.102;11.772;2023-05-10T02:11:41;13.70;99.90
46117;DHT22;32591;48.102;11.772;2023-05-10T02:14:10;13.70;99.90
46117;DHT22;32591;48.102;11.772;2023-05-10T02:16:39;13.80;99.90
46117;DHT22;32591;48.102;11.772;2023-05-10T02:19:07;13.80;99.90
46117;DHT22;32591;48.102;11.772;2023-05-10T02:21:37;13.80;99.90
46117;DHT22;32591;48.102;11.772;2023-05-10T02:24:06;13.90;99.90
46117;DHT22;32591;48.102;11.772;2023-05-10T02:26:34;13.90;99.90
46117;DHT22;32591;48.102;11.772;2023-05-10T02:29:03;13.90;99.90
46117;DHT22;32591;48.102;11.772;2023-05-10T02:31:33;14.00;99.90
46117;DHT22;32591;48.102;11.772;2023-05-10T02:34:01;14.00;99.90
46117;DHT22;32591;48.102;11.772;2023-05-10T02:36:30;14.00;99.90
46117;DHT22;32591;48.102;11.772;2023-05-10T02:39:00;14.00;99.90
46117;DHT22;32591;48.102;11.772;2023-05-10T02:41:31;13.90;99.90
46117;DHT22;32591;48.102;11.772;2023-05-10T02:44:00;13.80;99.90
46117;DHT22;32591;48.102;11.772;2023-05-10T02:46:28;13.80;99.90
46117;DHT22;32591;48.102;11.772;2023-05-10T02:48:55;13.80;99.90
46117;DHT22;32591;48.102;11.772;2023-05-10T02:51:25;13.80;99.90
46117;DHT22;32591;48.102;11.772;2023-05-10T02:53:53;13.80;99.90
46117;DHT22;32591;48.102;11.772;2023-05-10T02:56:29;13.80;99.90
46117;DHT22;32591;48.102;11.772;2023-05-10T02:58:58;13.80;99.90
46117;DHT22;32591;48.102;11.772;2023-05-10T03:01:25;13.80;99.90
46117;DHT22;32591;48.102;11.772;2023-05-10T03:03:52;13.90;99.90
46117;DHT22;32591;48.102;11.772;2023-05-10T03:06:19;13.90;99.90
46117;DHT22;32591;48.102;11.772;2023-05-10T03:08:46;13.80;99.90
46117;DHT22;32591;48.102;11.772;2023-05-10T03:11:27;13.80;99.90
46117;DHT22;32591;48.102;11.772;2023-05-10T03:14:07;13.70;99.90
46117;DHT22;32591;48.102;11.772;2023-05-10T03:16:42;13.80;99.90
46117;DHT22;32591;48.102;11.772;2023-05-10T03:19:18;13.60;99.90
46117;DHT22;32591;48.102;11.772;2023-05-10T03:21:51;13.60;99.90
46117;DHT22;32591;48.102;11.772;2023-05-10T03:24:21;13.50;99.90
46117;DHT22;32591;48.102;11.772;2023-05-10T03:26:53;13.60;99.90
46117;DHT22;32591;48.102;11.772;2023-05-10T03:29:23;13.60;99.90
46117;DHT22;32591;48.102;11.772;2023-05-10T03:31:52;13.50;99.90
46117;DHT22;32591;48.102;11.772;2023-05-10T03:34:23;13.40;99.90
46117;DHT22;32591;48.102;11.772;2023-05-10T03:36:50;13.40;99.90
46117;DHT22;32591;48.102;11.772;2023-05-10T03:39:17;13.40;99.90
46117;DHT22;32591;48.102;11.772;2023-05-10T03:41:44;13.20;99.90
46117;DHT22;32591;48.102;11.772;2023-05-10T03:44:12;13.20;99.90
46117;DHT22;32591;48.102;11.772;2023-05-10T03:46:39;13.10;99.90
46117;DHT22;32591;48.102;11.772;2023-05-10T03:49:06;13.00;99.90
46117;DHT22;32591;48.102;11.772;2023-05-10T03:51:33;13.00;99.90
46117;DHT22;32591;48.102;11.772;2023-05-10T03:54:00;13.10;99.90
46117;DHT22;32591;48.102;11.772;2023-05-10T03:56:27;13.00;99.90
46117;DHT22;32591;48.102;11.772;2023-05-10T03:58:54;13.00;99.90
46117;DHT22;32591;48.102;11.772;2023-05-10T04:01:23;13.10;99.90
46117;DHT22;32591;48.102;11.772;2023-05-10T04:03:50;12.90;99.90
46117;DHT22;32591;48.102;11.772;2023-05-10T04:06:17;12.90;99.90
46117;DHT22;32591;48.102;11.772;2023-05-10T04:08:44;12.80;99.90
46117;DHT22;32591;48.102;11.772;2023-05-10T04:11:11;12.80;99.90
46117;DHT22;32591;48.102;11.772;2023-05-10T04:13:39;12.90;99.90
46117;DHT22;32591;48.102;11.772;2023-05-10T04:16:06;12.80;99.90
46117;DHT22;32591;48.102;11.772;2023-05-10T04:18:35;12.90;99.90
46117;DHT22;32591;48.102;11.772;2023-05-10T04:21:02;12.90;99.90
46117;DHT22;32591;48.102;11.772;2023-05-10T04:23:29;12.90;99.90
46117;DHT22;32591;48.102;11.772;2023-05-10T04:25:59;12.90;99.90
46117;DHT22;32591;48.102;11.772;2023-05-10T04:28:27;12.90;99.90
46117;DHT22;32591;48.102;11.772;2023-05-10T04:31:00;12.90;99.90
46117;DHT22;32591;48.102;11.772;2023-05-10T04:33:28;12.90;99.90
46117;DHT22;32591;48.102;11.772;2023-05-10T04:35:57;12.90;99.90
46117;DHT22;32591;48.102;11.772;2023-05-10T04:38:27;12.90;99.90
46117;DHT22;32591;48.102;11.772;2023-05-10T04:40:54;12.90;99.90
46117;DHT22;32591;48.102;11.772;2023-05-10T04:43:21;12.90;99.90
46117;DHT22;32591;48.102;11.772;2023-05-10T04:45:48;12.90;99.90
46117;DHT22;32591;48.102;11.772;2023-05-10T04:48:15;12.90;99.90
46117;DHT22;32591;48.102;11.772;2023-05-10T04:50:42;12.90;99.90
46117;DHT22;32591;48.102;11.772;2023-05-10T04:53:11;12.80;99.90
46117;DHT22;32591;48.102;11.772;2023-05-10T04:55:38;12.80;99.90
46117;DHT22;32591;48.102;11.772;2023-05-10T04:58:05;12.80;99.90
46117;DHT22;32591;48.102;11.772;2023-05-10T05:00:33;12.90;99.90
46117;DHT22;32591;48.102;11.772;2023-05-10T05:03:00;12.80;99.90
46117;DHT22;32591;48.102;11.772;2023-05-10T05:05:27;12.80;99.90
46117;DHT22;32591;48.102;11.772;2023-05-10T05:07:54;12.80;99.90
46117;DHT22;32591;48.102;11.772;2023-05-10T05:10:23;12.80;99.90
46117;DHT22;32591;48.102;11.772;2023-05-10T05:12:50;12.80;99.90
46117;DHT22;32591;48.102;11.772;2023-05-10T05:15:17;12.80;99.90
46117;DHT22;32591;48.102;11.772;2023-05-10T05:17:44;12.80;99.90
46117;DHT22;32591;48.102;11.772;2023-05-10T05:20:11;12.80;99.90
46117;DHT22;32591;48.102;11.772;2023-05-10T05:22:38;12.80;99.90
46117;DHT22;32591;48.102;11.772;2023-05-10T05:25:06;12.70;99.90
46117;DHT22;32591;48.102;11.772;2023-05-10T05:27:35;12.70;99.90
46117;DHT22;32591;48.102;11.772;2023-05-10T05:30:02;12.60;99.90
46117;DHT22;32591;48.102;11.772;2023-05-10T05:32:30;12.60;99.90
46117;DHT22;32591;48.102;11.772;2023-05-10T05:34:57;12.60;99.90
46117;DHT22;32591;48.102;11.772;2023-05-10T05:37:24;12.50;99.90
46117;DHT22;32591;48.102;11.772;2023-05-10T05:39:51;12.50;99.90
46117;DHT22;32591;48.102;11.772;2023-05-10T05:42:17;12.40;99.90
46117;DHT22;32591;48.102;11.772;2023-05-10T05:44:46;12.30;99.90
46117;DHT22;32591;48.102;11.772;2023-05-10T05:47:13;12.30;99.90
46117;DHT22;32591;48.102;11.772;2023-05-10T05:49:40;12.30;99.90
46117;DHT22;32591;48.102;11.772;2023-05-10T05:52:07;12.30;99.90
46117;DHT22;32591;48.102;11.772;2023-05-10T05:54:34;12.30;99.90
46117;DHT22;32591;48.102;11.772;2023-05-10T05:57:01;12.20;99.90
46117;DHT22;32591;48.102;11.772;2023-05-10T05:59:28;12.20;99.90
46117;DHT22;32591;48.102;11.772;2023-05-10T06:01:56;12.10;99.90
46117;DHT22;32591;48.102;11.772;2023-05-10T06:04:24;11.90;99.90
46117;DHT22;32591;48.102;11.772;2023-05-10T06:06:51;11.90;99.90
46117;DHT22;32591;48.102;11.772;2023-05-10T06:09:17;11.80;99.90
46117;DHT22;32591;48.102;11.772;2023-05-10T06:11:44;11.90;99.90
46117;DHT22;32591;48.102;11.772;2023-05-10T06:14:11;11.90;99.90
46117;DHT22;32591;48.102;11.772;2023-05-10T06:16:38;11.90;99.90
46117;DHT22;32591;48.102;11.772;2023-05-10T06:19:07;12.00;99.90
46117;DHT22;32591;48.102;11.772;2023-05-10T06:21:34;12.10;99.90
46117;DHT22;32591;48.102;11.772;2023-05-10T06:24:01;12.00;99.90
46117;DHT22;32591;48.102;11.772;2023-05-10T06:26:28;12.10;99.90
46117;DHT22;32591;48.102;11.772;2023-05-10T06:28:55;12.20;99.90
46117;DHT22;32591;48.102;11.772;2023-05-10T06:31:23;12.30;99.90
46117;DHT22;32591;48.102;11.772;2023-05-10T06:33:50;12.30;99.90
46117;DHT22;32591;48.102;11.772;2023-05-10T06:36:18;12.30;99.90
46117;DHT22;32591;48.102;11.772;2023-05-10T06:38:45;12.40;99.90
46117;DHT22;32591;48.102;11.772;2023-05-10T06:41:12;12.50;99.90
46117;DHT22;32591;48.102;11.772;2023-05-10T06:43:39;12.50;99.90
46117;DHT22;32591;48.102;11.772;2023-05-10T06:46:06;12.50;99.90
46117;DHT22;32591;48.102;11.772;2023-05-10T06:48:33;12.50;99.90
46117;DHT22;32591;48.102;11.772;2023-05-10T06:51:01;12.60;99.90
46117;DHT22;32591;48.102;11.772;2023-05-10T06:53:29;12.70;99.90
46117;DHT22;32591;48.102;11.772;2023-05-10T06:55:56;12.70;99.90
46117;DHT22;32591;48.102;11.772;2023-05-10T06:58:23;12.80;99.90
46117;DHT22;32591;48.102;11.772;2023-05-10T07:00:50;12.80;99.90
46117;DHT22;32591;48.102;11.772;2023-05-10T07:03:17;12.90;99.90
46117;DHT22;32591;48.102;11.772;2023-05-10T07:05:44;12.90;99.90
46117;DHT22;32591;48.102;11.772;2023-05-10T07:08:11;12.90;99.90
46117;DHT22;32591;48.102;11.772;2023-05-10T07:10:40;13.00;99.90
46117;DHT22;32591;48.102;11.772;2023-05-10T07:13:07;13.10;99.90
46117;DHT22;32591;48.102;11.772;2023-05-10T07:15:34;13.20;99.90
46117;DHT22;32591;48.102;11.772;2023-05-10T07:18:00;13.30;99.90
46117;DHT22;32591;48.102;11.772;2023-05-10T07:20:28;13.20;99.90
46117;DHT22;32591;48.102;11.772;2023-05-10T07:22:55;13.30;99.90
46117;DHT22;32591;48.102;11.772;2023-05-10T07:25:21;13.40;99.90
46117;DHT22;32591;48.102;11.772;2023-05-10T07:27:50;13.30;99.90
46117;DHT22;32591;48.102;11.772;2023-05-10T07:30:18;13.30;99.90
46117;DHT22;32591;48.102;11.772;2023-05-10T07:32:45;13.30;99.90
46117;DHT22;32591;48.102;11.772;2023-05-10T07:35:12;13.30;99.90
46117;DHT22;32591;48.102;11.772;2023-05-10T07:37:39;13.30;99.90
46117;DHT22;32591;48.102;11.772;2023-05-10T07:40:07;13.30;99.90
46117;DHT22;32591;48.102;11.772;2023-05-10T07:42:35;13.40;99.90
46117;DHT22;32591;48.102;11.772;2023-05-10T07:45:04;13.40;99.90
46117;DHT22;32591;48.102;11.772;2023-05-10T07:47:32;13.40;99.90
46117;DHT22;32591;48.102;11.772;2023-05-10T07:49:59;13.30;99.90
46117;DHT22;32591;48.102;11.772;2023-05-10T07:52:27;13.30;99.90
46117;DHT22;32591;48.102;11.772;2023-05-10T07:54:54;13.50;99.90
46117;DHT22;32591;48.102;11.772;2023-05-10T07:57:22;13.60;99.90
46117;DHT22;32591;48.102;11.772;2023-05-10T07:59:49;13.80;99.90
46117;DHT22;32591;48.102;11.772;2023-05-10T08:02:17;13.90;99.90
46117;DHT22;32591;48.102;11.772;2023-05-10T08:04:44;14.00;99.90
46117;DHT22;32591;48.102;11.772;2023-05-10T08:07:11;14.00;99.90
46117;DHT22;32591;48.102;11.772;2023-05-10T08:09:38;14.00;99.90
46117;DHT22;32591;48.102;11.772;2023-05-10T08:12:05;13.90;99.90
46117;DHT22;32591;48.102;11.772;2023-05-10T08:14:32;13.80;99.90
46117;DHT22;32591;48.102;11.772;2023-05-10T08:16:59;13.70;99.90
46117;DHT22;32591;48.102;11.772;2023-05-10T08:19:27;13.70;99.90
46117;DHT22;32591;48.102;11.772;2023-05-10T08:21:54;13.80;99.90
46117;DHT22;32591;48.102;11.772;2023-05-10T08:24:22;13.80;99.90
46117;DHT22;32591;48.102;11.772;2023-05-10T08:26:49;13.90;99.90
46117;DHT22;32591;48.102;11.772;2023-05-10T08:29:16;13.80;99.90
46117;DHT22;32591;48.102;11.772;2023-05-10T08:31:43;13.90;99.90
46117;DHT22;32591;48.102;11.772;2023-05-10T08:34:11;14.10;99.90
46117;DHT22;32591;48.102;11.772;2023-05-10T08:36:39;14.30;99.90
46117;DHT22;32591;48.102;11.772;2023-05-10T08:39:06;14.50;99.90
46117;DHT22;32591;48.102;11.772;2023-05-10T08:41:33;14.70;99.90
46117;DHT22;32591;48.102;11.772;2023-05-10T08:44:04;14.90;99.90
46117;DHT22;32591;48.102;11.772;2023-05-10T08:46:33;15.10;99.90
46117;DHT22;32591;48.102;11.772;2023-05-10T08:49:04;15.30;99.90
46117;DHT22;32591;48.102;11.772;2023-05-10T08:51:36;15.40;99.90
46117;DHT22;32591;48.102;11.772;2023-05-10T08:54:08;15.50;99.90
46117;DHT22;32591;48.102;11.772;2023-05-10T08:56:36;15.60;99.90
46117;DHT22;32591;48.102;11.772;2023-05-10T08:59:03;15.60;99.90
46117;DHT22;32591;48.102;11.772;2023-05-10T09:01:31;15.60;99.90
46117;DHT22;32591;48.102;11.772;2023-05-10T09:03:59;15.60;99.90
46117;DHT22;32591;48.102;11.772;2023-05-10T09:06:26;15.40;99.90
46117;DHT22;32591;48.102;11.772;2023-05-10T09:08:55;15.30;99.90
46117;DHT22;32591;48.102;11.772;2023-05-10T09:11:22;15.20;99.90
46117;DHT22;32591;48.102;11.772;2023-05-10T09:13:51;15.10;99.90
46117;DHT22;32591;48.102;11.772;2023-05-10T09:16:19;15.10;99.90
46117;DHT22;32591;48.102;11.772;2023-05-10T09:18:47;15.00;99.90
46117;DHT22;32591;48.102;11.772;2023-05-10T09:21:14;15.00;99.90
46117;DHT22;32591;48.102;11.772;2023-05-10T09:23:43;15.00;99.90
46117;DHT22;32591;48.102;11.772;2023-05-10T09:26:11;15.20;99.90
46117;DHT22;32591;48.102;11.772;2023-05-10T09:28:51;15.30;99.90
46117;DHT22;32591;48.102;11.772;2023-05-10T09:31:19;15.20;99.90
46117;DHT22;32591;48.102;11.772;2023-05-10T09:33:46;15.10;99.90
46117;DHT22;32591;48.102;11.772;2023-05-10T09:36:14;15.10;99.90
46117;DHT22;32591;48.102;11.772;2023-05-10T09:38:45;14.90;99.90
46117;DHT22;32591;48.102;11.772;2023-05-10T09:41:19;14.90;99.90
46117;DHT22;32591;48.102;11.772;2023-05-10T09:43:47;14.90;99.90
46117;DHT22;32591;48.102;11.772;2023-05-10T09:46:15;14.80;99.90
46117;DHT22;32591;48.102;11.772;2023-05-10T09:48:44;14.80;99.90
46117;DHT22;32591;48.102;11.772;2023-05-10T09:51:18;15.00;99.90
46117;DHT22;32591;48.102;11.772;2023-05-10T09:53:47;15.30;99.90
46117;DHT22;32591;48.102;11.772;2023-05-10T09:56:32;15.50;99.90
46117;DHT22;32591;48.102;11.772;2023-05-10T09:59:03;15.50;99.90
46117;DHT22;32591;48.102;11.772;2023-05-10T10:01:31;15.50;99.90
46117;DHT22;32591;48.102;11.772;2023-05-10T10:03:58;15.30;99.90
46117;DHT22;32591;48.102;11.772;2023-05-10T10:06:25;15.10;99.90
46117;DHT22;32591;48.102;11.772;2023-05-10T10:08:53;15.00;99.90
46117;DHT22;32591;48.102;11.772;2023-05-10T10:11:24;14.90;99.90
46117;DHT22;32591;48.102;11.772;2023-05-10T10:13:51;14.80;99.90
46117;DHT22;32591;48.102;11.772;2023-05-10T10:16:19;14.90;99.90
46117;DHT22;32591;48.102;11.772;2023-05-10T10:18:47;15.00;99.90
46117;DHT22;32591;48.102;11.772;2023-05-10T10:21:15;15.00;99.90
46117;DHT22;32591;48.102;11.772;2023-05-10T10:23:42;15.10;99.90
46117;DHT22;32591;48.102;11.772;2023-05-10T10:26:10;14.90;99.90
46117;DHT22;32591;48.102;11.772;2023-05-10T10:28:48;14.90;99.90
46117;DHT22;32591;48.102;11.772;2023-05-10T10:31:34;15.10;99.90
46117;DHT22;32591;48.102;11.772;2023-05-10T10:34:06;15.20;99.90
46117;DHT22;32591;48.102;11.772;2023-05-10T10:36:40;15.30;99.90
46117;DHT22;32591;48.102;11.772;2023-05-10T10:39:10;15.50;99.90
46117;DHT22;32591;48.102;11.772;2023-05-10T10:41:38;15.60;99.90
46117;DHT22;32591;48.102;11.772;2023-05-10T10:44:36;15.70;99.90
46117;DHT22;32591;48.102;11.772;2023-05-10T10:47:07;15.70;99.90
46117;DHT22;32591;48.102;11.772;2023-05-10T10:49:49;15.70;99.90
46117;DHT22;32591;48.102;11.772;2023-05-10T10:52:22;15.90;99.90
46117;DHT22;32591;48.102;11.772;2023-05-10T10:54:58;16.00;99.90
46117;DHT22;32591;48.102;11.772;2023-05-10T10:57:26;16.10;99.90
46117;DHT22;32591;48.102;11.772;2023-05-10T11:00:19;16.10;99.90
46117;DHT22;32591;48.102;11.772;2023-05-10T11:02:56;16.20;99.90
46117;DHT22;32591;48.102;11.772;2023-05-10T11:05:39;16.10;99.90
46117;DHT22;32591;48.102;11.772;2023-05-10T11:08:13;16.20;99.90
46117;DHT22;32591;48.102;11.772;2023-05-10T11:10:52;16.10;99.90
46117;DHT22;32591;48.102;11.772;2023-05-10T11:13:27;16.00;99.90
46117;DHT22;32591;48.102;11.772;2023-05-10T11:15:57;16.00;99.90
46117;DHT22;32591;48.102;11.772;2023-05-10T11:18:26;16.10;99.90
46117;DHT22;32591;48.102;11.772;2023-05-10T11:20:58;16.20;99.90
46117;DHT22;32591;48.102;11.772;2023-05-10T11:23:30;16.10;99.90
46117;DHT22;32591;48.102;11.772;2023-05-10T11:25:59;16.20;99.90
46117;DHT22;32591;48.102;11.772;2023-05-10T11:28:26;16.10;99.90
46117;DHT22;32591;48.102;11.772;2023-05-10T11:30:54;16.10;99.90
46117;DHT22;32591;48.102;11.772;2023-05-10T11:33:22;15.90;99.90
46117;DHT22;32591;48.102;11.772;2023-05-10T11:35:49;15.80;99.90
46117;DHT22;32591;48.102;11.772;2023-05-10T11:38:16;15.80;99.90
46117;DHT22;32591;48.102;11.772;2023-05-10T11:40:43;15.70;99.90
46117;DHT22;32591;48.102;11.772;2023-05-10T11:43:10;15.50;99.90
46117;DHT22;32591;48.102;11.772;2023-05-10T11:45:38;15.40;99.90
46117;DHT22;32591;48.102;11.772;2023-05-10T11:48:07;15.20;99.90
46117;DHT22;32591;48.102;11.772;2023-05-10T11:50:36;15.20;99.90
46117;DHT22;32591;48.102;11.772;2023-05-10T11:53:03;15.20;99.90
46117;DHT22;32591;48.102;11.772;2023-05-10T11:55:33;15.20;99.90
46117;DHT22;32591;48.102;11.772;2023-05-10T11:58:01;15.20;99.90
46117;DHT22;32591;48.102;11.772;2023-05-10T12:00:30;15.30;99.90
46117;DHT22;32591;48.102;11.772;2023-05-10T12:02:57;15.30;99.90
46117;DHT22;32591;48.102;11.772;2023-05-10T12:05:25;15.30;99.90
46117;DHT22;32591;48.102;11.772;2023-05-10T12:08:10;15.10;99.90
46117;DHT22;32591;48.102;11.772;2023-05-10T12:10:38;14.80;99.90
46117;DHT22;32591;48.102;11.772;2023-05-10T12:13:05;14.40;99.90
46117;DHT22;32591;48.102;11.772;2023-05-10T12:15:37;14.00;99.90
46117;DHT22;32591;48.102;11.772;2023-05-10T12:18:04;13.70;99.90
46117;DHT22;32591;48.102;11.772;2023-05-10T12:20:31;13.40;99.90
46117;DHT22;32591;48.102;11.772;2023-05-10T12:23:00;13.20;99.90
46117;DHT22;32591;48.102;11.772;2023-05-10T12:25:30;12.90;99.90
46117;DHT22;32591;48.102;11.772;2023-05-10T12:27:59;12.70;99.90
46117;DHT22;32591;48.102;11.772;2023-05-10T12:30:30;12.60;99.90
46117;DHT22;32591;48.102;11.772;2023-05-10T12:33:03;12.60;99.90
46117;DHT22;32591;48.102;11.772;2023-05-10T12:35:45;12.70;99.90
46117;DHT22;32591;48.102;11.772;2023-05-10T12:38:29;12.80;99.90
46117;DHT22;32591;48.102;11.772;2023-05-10T12:41:00;12.80;99.90
46117;DHT22;32591;48.102;11.772;2023-05-10T12:43:27;12.90;99.90
46117;DHT22;32591;48.102;11.772;2023-05-10T12:45:55;12.90;99.90
46117;DHT22;32591;48.102;11.772;2023-05-10T12:48:22;12.90;99.90
46117;DHT22;32591;48.102;11.772;2023-05-10T12:50:49;12.90;99.90
46117;DHT22;32591;48.102;11.772;2023-05-10T12:53:16;12.90;99.90
46117;DHT22;32591;48.102;11.772;2023-05-10T12:55:44;12.80;99.90
46117;DHT22;32591;48.102;11.772;2023-05-10T12:58:12;12.90;99.90
46117;DHT22;32591;48.102;11.772;2023-05-10T13:00:40;12.80;99.90
46117;DHT22;32591;48.102;11.772;2023-05-10T13:03:07;12.80;99.90
46117;DHT22;32591;48.102;11.772;2023-05-10T13:05:34;12.80;99.90
46117;DHT22;32591;48.102;11.772;2023-05-10T13:08:01;12.70;99.90
46117;DHT22;32591;48.102;11.772;2023-05-10T13:10:29;12.80;99.90
46117;DHT22;32591;48.102;11.772;2023-05-10T13:12:58;12.80;99.90
46117;DHT22;32591;48.102;11.772;2023-05-10T13:15:26;12.80;99.90
46117;DHT22;32591;48.102;11.772;2023-05-10T13:17:53;12.90;99.90
46117;DHT22;32591;48.102;11.772;2023-05-10T13:20:20;12.90;99.90
46117;DHT22;32591;48.102;11.772;2023-05-10T13:22:47;12.90;99.90
46117;DHT22;32591;48.102;11.772;2023-05-10T13:25:15;12.90;99.90
46117;DHT22;32591;48.102;11.772;2023-05-10T13:27:42;13.00;99.90
46117;DHT22;32591;48.102;11.772;2023-05-10T13:30:11;13.10;99.90
46117;DHT22;32591;48.102;11.772;2023-05-10T13:32:38;13.20;99.90
46117;DHT22;32591;48.102;11.772;2023-05-10T13:35:06;13.20;99.90
46117;DHT22;32591;48.102;11.772;2023-05-10T13:37:33;13.10;99.90
46117;DHT22;32591;48.102;11.772;2023-05-10T13:40:03;13.00;99.90
46117;DHT22;32591;48.102;11.772;2023-05-10T13:42:31;12.90;99.90
46117;DHT22;32591;48.102;11.772;2023-05-10T13:44:58;12.90;99.90
46117;DHT22;32591;48.102;11.772;2023-05-10T13:47:27;12.90;99.90
46117;DHT22;32591;48.102;11.772;2023-05-10T13:49:54;13.00;99.90
46117;DHT22;32591;48.102;11.772;2023-05-10T13:52:22;13.00;99.90
46117;DHT22;32591;48.102;11.772;2023-05-10T13:54:50;13.10;99.90
46117;DHT22;32591;48.102;11.772;2023-05-10T13:57:20;13.20;99.90
46117;DHT22;32591;48.102;11.772;2023-05-10T13:59:47;13.10;99.90
46117;DHT22;32591;48.102;11.772;2023-05-10T14:02:14;13.00;99.90
46117;DHT22;32591;48.102;11.772;2023-05-10T14:04:42;13.00;99.90
46117;DHT22;32591;48.102;11.772;2023-05-10T14:07:09;13.10;99.90
46117;DHT22;32591;48.102;11.772;2023-05-10T14:09:36;13.10;99.90
46117;DHT22;32591;48.102;11.772;2023-05-10T14:12:03;13.10;99.90
46117;DHT22;32591;48.102;11.772;2023-05-10T14:14:30;13.00;99.90
46117;DHT22;32591;48.102;11.772;2023-05-10T14:16:57;12.90;99.90
46117;DHT22;32591;48.102;11.772;2023-05-10T14:19:24;12.90;99.90
46117;DHT22;32591;48.102;11.772;2023-05-10T14:21:53;12.90;99.90
46117;DHT22;32591;48.102;11.772;2023-05-10T14:24:20;13.00;99.90
46117;DHT22;32591;48.102;11.772;2023-05-10T14:26:47;13.10;99.90
46117;DHT22;32591;48.102;11.772;2023-05-10T14:29:14;13.20;99.90
46117;DHT22;32591;48.102;11.772;2023-05-10T14:31:41;13.20;99.90
46117;DHT22;32591;48.102;11.772;2023-05-10T14:34:08;13.10;99.90
46117;DHT22;32591;48.102;11.772;2023-05-10T14:36:35;13.00;99.90
46117;DHT22;32591;48.102;11.772;2023-05-10T14:39:03;12.90;99.90
46117;DHT22;32591;48.102;11.772;2023-05-10T14:41:30;13.00;99.90
46117;DHT22;32591;48.102;11.772;2023-05-10T14:43:57;12.90;99.90
46117;DHT22;32591;48.102;11.772;2023-05-10T14:46:24;13.00;99.90
46117;DHT22;32591;48.102;11.772;2023-05-10T14:48:52;12.90;99.90
46117;DHT22;32591;48.102;11.772;2023-05-10T14:51:18;13.00;99.90
46117;DHT22;32591;48.102;11.772;2023-05-10T14:53:47;12.90;99.90
46117;DHT22;32591;48.102;11.772;2023-05-10T14:56:16;13.00;99.90
46117;DHT22;32591;48.102;11.772;2023-05-10T14:58:43;12.90;99.90
46117;DHT22;32591;48.102;11.772;2023-05-10T15:01:11;13.00;99.90
46117;DHT22;32591;48.102;11.772;2023-05-10T15:03:38;13.00;99.90
46117;DHT22;32591;48.102;11.772;2023-05-10T15:06:05;13.00;99.90
46117;DHT22;32591;48.102;11.772;2023-05-10T15:08:32;12.90;99.90
46117;DHT22;32591;48.102;11.772;2023-05-10T15:10:59;12.80;99.90
46117;DHT22;32591;48.102;11.772;2023-05-10T15:13:28;12.70;99.90
46117;DHT22;32591;48.102;11.772;2023-05-10T15:15:55;12.70;99.90
46117;DHT22;32591;48.102;11.772;2023-05-10T15:18:22;12.70;99.90
46117;DHT22;32591;48.102;11.772;2023-05-10T15:20:49;12.70;99.90
46117;DHT22;32591;48.102;11.772;2023-05-10T15:23:16;12.70;99.90
46117;DHT22;32591;48.102;11.772;2023-05-10T15:25:43;12.60;99.90
46117;DHT22;32591;48.102;11.772;2023-05-10T15:28:10;12.50;99.90